createdAt,value
2023-05-11T00:00:10.819Z,14.00
2023-05-11T00:04:11.990Z,13.90
2023-05-11T00:08:15.519Z,13.40
2023-05-11T00:12:16.570Z,13.10
2023-05-11T00:16:17.907Z,13.20
2023-05-11T00:20:20.863Z,13.60
2023-05-11T00:24:22.226Z,13.70
2023-05-11T00:28:23.444Z,13.80
2023-05-11T00:32:24.916Z,13.80
2023-05-11T00:36:26.693Z,13.90
2023-05-11T00:40:28.196Z,13.70
2023-05-11T00:44:29.404Z,13.50
2023-05-11T00:48:30.777Z,13.40
2023-05-11T00:52:32.053Z,13.50
2023-05-11T00:56:33.408Z,13.50
2023-05-11T01:00:36.051Z,13.60
2023-05-11T01:04:38.161Z,13.70
2023-05-11T01:08:43.215Z,13.60
2023-05-11T01:12:55.285Z,13.60
2023-05-11T01:17:00.308Z,13.50
2023-05-11T01:21:02.533Z,13.60
2023-05-11T01:25:33.723Z,13.70
2023-05-11T01:30:01.479Z,13.60
2023-05-11T01:34:06.478Z,13.50
2023-05-11T01:38:11.491Z,13.50
2023-05-11T01:42:14.793Z,13.40
2023-05-11T01:46:16.941Z,13.40
2023-05-11T01:50:21.348Z,13.50
2023-05-11T01:54:23.744Z,13.50
2023-05-11T01:58:26.565Z,13.50
2023-05-11T02:02:29.354Z,13.40
2023-05-11T02:06:33.513Z,13.50
2023-05-11T02:10:36.314Z,13.40
2023-05-11T02:14:38.659Z,13.30
2023-05-11T02:18:41.118Z,13.30
2023-05-11T02:22:42.791Z,13.30
2023-05-11T02:26:44.010Z,13.30
2023-05-11T02:30:47.422Z,13.40
2023-05-11T02:35:01.264Z,13.50
2023-05-11T02:39:06.310Z,13.50
2023-05-11T02:43:13.079Z,13.20
2023-05-11T02:47:15.283Z,13.10
2023-05-11T02:51:18.885Z,13.10
2023-05-11T02:55:21.849Z,13.10
2023-05-11T02:59:24.660Z,13.20
2023-05-11T03:03:27.226Z,13.30
2023-05-11T03:07:28.562Z,13.30
2023-05-11T03:11:30.173Z,13.20
2023-05-11T03:15:32.375Z,13.30
2023-05-11T03:19:34.920Z,13.30
2023-05-11T03:23:37.256Z,13.40
2023-05-11T03:27:41.177Z,13.40
2023-05-11T03:31:42.607Z,13.40
2023-05-11T03:35:45.819Z,13.30
2023-05-11T03:39:50.880Z,13.30
2023-05-11T03:43:54.117Z,13.20
2023-05-11T03:47:56.634Z,13.20
2023-05-11T03:51:59.249Z,13.10
2023-05-11T03:56:01.133Z,13.20
2023-05-11T04:00:02.884Z,13.10
2023-05-11T04:04:04.697Z,13.10
2023-05-11T04:08:06.207Z,13.00
2023-05-11T04:12:07.541Z,12.70
2023-05-11T04:16:08.928Z,12.90
2023-05-11T04:20:10.421Z,13.00
2023-05-11T04:24:11.652Z,13.00
2023-05-11T04:28:12.828Z,13.00
2023-05-11T04:32:15.088Z,13.20
2023-05-11T04:36:16.350Z,13.20
2023-05-11T04:40:18.102Z,13.20
2023-05-11T04:44:19.540Z,13.20
2023-05-11T04:48:21.124Z,13.30
2023-05-11T04:52:22.402Z,13.30
2023-05-11T04:56:23.609Z,13.30
2023-05-11T05:00:25.608Z,13.50
2023-05-11T05:04:26.966Z,13.50
2023-05-11T05:08:28.215Z,13.60
2023-05-11T05:12:29.584Z,13.50
2023-05-11T05:16:32.452Z,13.70
2023-05-11T05:20:34.640Z,13.90
2023-05-11T05:24:35.912Z,13.80
2023-05-11T05:28:37.125Z,14.00
2023-05-11T05:32:38.480Z,14.00
2023-05-11T05:36:39.875Z,13.70
2023-05-11T05:40:41.131Z,13.90
2023-05-11T05:44:42.406Z,13.90
2023-05-11T05:48:43.607Z,14.00
2023-05-11T05:52:44.803Z,14.10
2023-05-11T05:56:47.027Z,13.90
2023-05-11T06:00:48.586Z,13.80
2023-05-11T06:04:49.930Z,14.00
2023-05-11T06:08:51.202Z,14.10
2023-05-11T06:12:52.510Z,14.20
2023-05-11T06:16:53.712Z,14.30
2023-05-11T06:20:54.922Z,14.60
2023-05-11T06:24:56.827Z,14.60
2023-05-11T06:28:58.045Z,14.70
2023-05-11T06:32:59.359Z,14.60
2023-05-11T06:37:00.883Z,14.80
2023-05-11T06:41:02.142Z,15.00
2023-05-11T06:45:03.694Z,14.90
2023-05-11T06:49:05.002Z,15.20
2023-05-11T06:53:06.252Z,15.20
2023-05-11T06:57:07.474Z,15.10
2023-05-11T07:01:08.726Z,15.40
2023-05-11T07:05:10.050Z,15.60
2023-05-11T07:09:11.359Z,15.70
2023-05-11T07:13:12.577Z,15.90
2023-05-11T07:17:13.905Z,16.00
2023-05-11T07:21:15.547Z,16.20
2023-05-11T07:25:16.783Z,16.30
2023-05-11T07:29:18.048Z,16.30
2023-05-11T07:33:19.276Z,16.40
2023-05-11T07:37:20.508Z,16.40
2023-05-11T07:41:23.767Z,16.40
2023-05-11T07:45:25.093Z,16.60
2023-05-11T07:49:35.552Z,16.90
2023-05-11T07:53:29.445Z,16.90
2023-05-11T07:57:30.689Z,16.90
2023-05-11T08:01:32.068Z,16.90
2023-05-11T08:05:35.172Z,17.20
2023-05-11T08:09:36.735Z,17.30
2023-05-11T08:13:38.045Z,17.40
2023-05-11T08:17:39.366Z,16.90
2023-05-11T08:21:41.283Z,17.10
2023-05-11T08:25:51.382Z,17.40
2023-05-11T08:29:53.105Z,17.60
2023-05-11T08:33:54.398Z,17.60
2023-05-11T08:37:55.756Z,17.30
2023-05-11T08:41:58.868Z,17.40
2023-05-11T08:46:03.993Z,17.10
2023-05-11T08:50:07.080Z,17.20
2023-05-11T08:54:09.018Z,17.60
2023-05-11T08:58:14.463Z,17.70
2023-05-11T09:02:19.001Z,17.80
2023-05-11T09:06:20.970Z,17.80
2023-05-11T09:10:23.027Z,18.20
2023-05-11T09:14:27.635Z,18.30
2023-05-11T09:18:28.399Z,18.60
2023-05-11T09:22:34.503Z,18.30
2023-05-11T09:26:36.634Z,18.40
2023-05-11T09:30:38.047Z,18.00
2023-05-11T09:34:43.188Z,17.60
2023-05-11T09:38:42.315Z,17.90
2023-05-11T09:42:43.644Z,18.10
2023-05-11T09:46:45.255Z,17.90
2023-05-11T09:50:53.224Z,17.90
2023-05-11T09:54:54.443Z,18.00
2023-05-11T09:58:56.976Z,18.00
2023-05-11T10:03:07.000Z,17.80
2023-05-11T10:07:08.874Z,17.80
2023-05-11T10:11:10.683Z,18.10
2023-05-11T10:15:14.016Z,18.50
2023-05-11T10:19:16.195Z,18.30
2023-05-11T10:23:19.250Z,18.70
2023-05-11T10:27:21.600Z,18.40
2023-05-11T10:31:23.922Z,18.50
2023-05-11T10:35:26.145Z,18.60
2023-05-11T10:39:31.245Z,18.70
2023-05-11T10:44:07.106Z,18.70
2023-05-11T10:48:27.484Z,18.10
2023-05-11T10:52:56.309Z,18.10
2023-05-11T10:57:04.369Z,17.80
2023-05-11T11:01:32.495Z,17.90
2023-05-11T11:05:35.271Z,18.30
2023-05-11T11:09:55.625Z,18.10
2023-05-11T11:14:00.703Z,18.20
2023-05-11T11:18:22.055Z,18.30
2023-05-11T11:22:37.826Z,18.20
2023-05-11T11:26:48.550Z,18.10
2023-05-11T11:31:12.072Z,18.10
2023-05-11T11:35:44.136Z,17.70
2023-05-11T11:39:49.057Z,17.90
2023-05-11T11:43:52.202Z,17.90
2023-05-11T11:48:02.963Z,18.10
2023-05-11T11:52:08.267Z,18.00
2023-05-11T11:56:21.232Z,18.10
2023-05-11T12:00:24.260Z,18.10
2023-05-11T12:04:35.981Z,18.20
2023-05-11T12:08:39.257Z,18.30
2023-05-11T12:12:47.207Z,18.30
2023-05-11T12:17:03.532Z,18.60
2023-05-11T12:21:05.707Z,18.10
2023-05-11T12:25:07.622Z,18.50
2023-05-11T12:29:12.032Z,18.50
2023-05-11T12:33:14.584Z,18.90
2023-05-11T12:37:15.928Z,19.20
2023-05-11T12:41:21.996Z,19.60
2023-05-11T12:45:25.850Z,19.00
2023-05-11T12:49:27.351Z,18.60
2023-05-11T12:53:33.262Z,18.80
2023-05-11T12:57:34.624Z,19.30
2023-05-11T13:01:36.141Z,18.90
2023-05-11T13:05:39.150Z,18.80
2023-05-11T13:09:41.251Z,18.30
2023-05-11T13:13:42.491Z,18.70
2023-05-11T13:17:44.367Z,19.30
2023-05-11T13:21:45.970Z,19.90
2023-05-11T13:25:55.064Z,19.90
2023-05-11T13:29:56.221Z,19.90
2023-05-11T13:33:57.385Z,19.60
2023-05-11T13:37:58.555Z,19.80
2023-05-11T13:41:59.681Z,19.80
2023-05-11T13:46:03.128Z,19.70
2023-05-11T13:50:05.187Z,19.30
2023-05-11T13:54:06.313Z,18.90
2023-05-11T13:58:08.727Z,18.50
2023-05-11T14:02:10.861Z,18.60
2023-05-11T14:06:12.016Z,18.10
2023-05-11T14:10:13.189Z,18.10
2023-05-11T14:14:14.345Z,18.30
2023-05-11T14:18:15.532Z,18.10
2023-05-11T14:22:16.760Z,18.10
2023-05-11T14:26:17.920Z,18.10
2023-05-11T14:30:19.602Z,18.10
2023-05-11T14:34:20.758Z,18.10
2023-05-11T14:38:22.033Z,18.30
2023-05-11T14:42:23.218Z,18.30
2023-05-11T14:46:26.308Z,18.40
2023-05-11T14:50:27.728Z,18.40
2023-05-11T14:54:29.700Z,18.30
2023-05-11T14:58:31.179Z,18.30
2023-05-11T15:02:32.313Z,18.20
2023-05-11T15:06:33.913Z,18.10
2023-05-11T15:10:37.020Z,18.10
2023-05-11T15:14:38.219Z,18.10
2023-05-11T15:18:41.041Z,18.10
2023-05-11T15:22:42.317Z,18.10
2023-05-11T15:26:43.584Z,18.00
2023-05-11T15:30:46.456Z,17.90
2023-05-11T15:34:59.262Z,17.90
2023-05-11T15:38:50.634Z,17.90
2023-05-11T15:42:54.822Z,18.00
2023-05-11T15:46:57.722Z,17.50
2023-05-11T15:51:01.044Z,17.30
2023-05-11T15:55:03.688Z,17.30
2023-05-11T15:59:04.884Z,17.30
2023-05-11T16:03:06.675Z,17.30
2023-05-11T16:07:07.930Z,17.30
2023-05-11T16:11:09.280Z,17.20
2023-05-11T16:15:11.301Z,17.10
2023-05-11T16:19:12.627Z,17.10
2023-05-11T16:23:13.853Z,17.00
2023-05-11T16:27:15.016Z,16.90
2023-05-11T16:31:16.260Z,16.90
2023-05-11T16:35:17.680Z,16.80
2023-05-11T16:39:18.871Z,17.00
2023-05-11T16:43:20.042Z,17.00
2023-05-11T16:47:21.216Z,17.00
2023-05-11T16:51:22.349Z,16.90
2023-05-11T16:55:23.545Z,16.90
2023-05-11T16:59:24.692Z,16.80
2023-05-11T17:03:26.287Z,16.70
2023-05-11T17:07:27.402Z,16.90
2023-05-11T17:11:28.581Z,16.90
2023-05-11T17:15:30.974Z,16.70
2023-05-11T17:19:32.141Z,16.60
2023-05-11T17:23:34.245Z,16.60
2023-05-11T17:27:36.500Z,16.60
2023-05-11T17:31:37.827Z,16.60
2023-05-11T17:35:39.250Z,16.60
2023-05-11T17:39:41.165Z,16.50
2023-05-11T17:43:42.311Z,16.50
2023-05-11T17:47:46.423Z,16.50
2023-05-11T17:51:47.647Z,16.50
2023-05-11T17:55:50.520Z,16.40
2023-05-11T17:59:51.700Z,16.70
2023-05-11T18:03:53.136Z,17.20
2023-05-11T18:07:54.328Z,17.70
2023-05-11T18:11:55.484Z,18.00
2023-05-11T18:15:57.641Z,18.20
2023-05-11T18:19:58.851Z,18.40
2023-05-11T18:24:00.156Z,18.50
2023-05-11T18:28:01.753Z,18.60
2023-05-11T18:32:03.102Z,18.60
2023-05-11T18:36:04.760Z,18.60
2023-05-11T18:40:06.989Z,18.40
2023-05-11T18:44:08.648Z,18.50
2023-05-11T18:48:09.883Z,18.40
2023-05-11T18:52:11.929Z,18.20
2023-05-11T18:56:13.101Z,17.60
2023-05-11T19:00:15.319Z,17.20
2023-05-11T19:04:18.435Z,17.00
2023-05-11T19:08:19.482Z,16.60
2023-05-11T19:12:20.758Z,16.50
2023-05-11T19:16:22.047Z,16.20
2023-05-11T19:20:23.180Z,16.30
2023-05-11T19:24:24.358Z,16.20
2023-05-11T19:28:25.531Z,16.10
2023-05-11T19:32:26.997Z,16.10
2023-05-11T19:36:28.981Z,16.00
2023-05-11T19:44:34.992Z,15.90
2023-05-11T19:48:45.282Z,16.00
2023-05-11T19:52:51.102Z,15.90
2023-05-11T19:56:52.245Z,15.90
2023-05-11T20:00:54.126Z,15.90
2023-05-11T20:04:55.445Z,15.80
2023-05-11T20:08:56.779Z,15.80
2023-05-11T20:12:58.745Z,15.80
2023-05-11T20:17:00.225Z,15.80
2023-05-11T20:21:02.260Z,15.80
2023-05-11T20:25:11.456Z,15.80
2023-05-11T20:29:13.590Z,15.70
2023-05-11T20:37:18.135Z,15.80
2023-05-11T20:41:19.328Z,15.80
2023-05-11T20:45:20.833Z,15.70
2023-05-11T20:49:34.672Z,15.70
2023-05-11T20:53:26.043Z,15.60
2023-05-11T20:57:27.293Z,15.50
2023-05-11T21:01:28.483Z,15.70
2023-05-11T21:05:30.132Z,16.30
2023-05-11T21:09:31.386Z,16.00
2023-05-11T21:13:32.602Z,15.90
2023-05-11T21:17:35.333Z,15.70
2023-05-11T21:21:37.652Z,15.60
2023-05-11T21:25:42.347Z,15.60
2023-05-11T21:29:47.920Z,15.60
2023-05-11T21:33:50.981Z,15.50
2023-05-11T21:37:53.755Z,15.50
2023-05-11T21:41:55.108Z,15.40
2023-05-11T21:45:56.242Z,15.40
2023-05-11T21:49:58.154Z,15.40
2023-05-11T21:53:59.854Z,15.30
2023-05-11T21:58:04.541Z,15.30
2023-05-11T22:02:05.721Z,15.10
2023-05-11T22:06:07.148Z,15.20
2023-05-11T22:10:09.535Z,15.30
2023-05-11T22:14:10.849Z,15.20
2023-05-11T22:18:12.023Z,15.20
2023-05-11T22:22:13.081Z,15.30
2023-05-11T22:26:15.803Z,15.30
2023-05-11T22:30:17.638Z,15.10
2023-05-11T22:34:20.582Z,15.10
2023-05-11T22:38:21.840Z,15.10
2023-05-11T22:42:23.143Z,15.10
2023-05-11T22:46:24.352Z,15.10
2023-05-11T22:50:25.548Z,15.00
2023-05-11T22:54:26.725Z,15.10
2023-05-11T22:58:27.973Z,15.00
2023-05-11T23:02:29.302Z,15.00
2023-05-11T23:06:30.476Z,14.90
2023-05-11T23:10:31.707Z,14.90
2023-05-11T23:14:32.979Z,14.90
2023-05-11T23:18:34.256Z,14.80
2023-05-11T23:22:35.678Z,14.80
2023-05-11T23:26:36.816Z,14.90
2023-05-11T23:30:37.976Z,14.70
2023-05-11T23:34:39.116Z,14.80
2023-05-11T23:38:40.262Z,14.80
2023-05-11T23:42:41.421Z,14.70
2023-05-11T23:46:43.168Z,14.60
2023-05-11T23:50:44.339Z,14.60
2023-05-11T23:54:45.493Z,14.50
2023-05-11T23:58:46.560Z,14.60
